Time;durP1;ratioP1;P1;durP2;ratioP2;P2;SDS_P1;SDS_P2;PMS_P1;PMS_P2;Temp;Humidity;BMP_temperature;BMP_pressure;BME280_temperature;BME280_humidity;BME280_pressure;Samples;Min_cycle;Max_cycle;Signal;HPM_P1;HPM_P2
2021/05/12 00:00:47;;;;;;;9.10;3.85;;;;;;;16.76;43.02;98139.41;1881970;91;21001;-78
2021/05/12 00:03:48;;;;;;;6.30;3.52;;;;;;;16.71;43.15;98137.33;1881916;91;21248;-78
2021/05/12 00:06:50;;;;;;;9.65;4.50;;;;;;;16.67;43.20;98135.67;1882014;91;21069;-78
2021/05/12 00:09:51;;;;;;;8.30;4.20;;;;;;;16.61;43.36;98137.10;1881872;91;21065;-79
2021/05/12 00:12:52;;;;;;;7.53;4.17;;;;;;;16.54;43.31;98134.61;1881983;91;21371;-78
2021/05/12 00:15:53;;;;;;;6.10;3.72;;;;;;;16.47;43.54;98127.75;1881903;91;21021;-78
2021/05/12 00:18:54;;;;;;;5.03;3.37;;;;;;;16.41;43.64;98119.96;1881863;91;21033;-78
2021/05/12 00:22:00;;;;;;;8.65;3.62;;;;;;;16.36;43.71;98114.38;1881768;91;20997;-78
2021/05/12 00:24:57;;;;;;;11.30;4.00;;;;;;;16.30;43.81;98114.52;1881509;91;21049;-79
2021/05/12 00:27:58;;;;;;;6.55;3.67;;;;;;;16.23;43.98;98118.61;1881732;91;21002;-78
2021/05/12 00:30:59;;;;;;;9.75;3.67;;;;;;;16.16;44.23;98113.52;1881785;91;21299;-78
2021/05/12 00:34:00;;;;;;;15.28;4.03;;;;;;;16.10;44.23;98124.17;1881742;91;21013;-78
2021/05/12 00:37:01;;;;;;;10.45;4.10;;;;;;;16.05;44.40;98127.36;1881794;91;21123;-78
2021/05/12 00:40:02;;;;;;;11.78;4.15;;;;;;;16.00;44.63;98123.51;1881724;91;20981;-78
2021/05/12 00:43:03;;;;;;;8.83;3.70;;;;;;;15.95;44.66;98121.88;1881654;91;21096;-78
2021/05/12 00:46:04;;;;;;;4.78;3.20;;;;;;;15.87;44.86;98126.84;1881717;91;20989;-79
2021/05/12 00:49:05;;;;;;;7.10;3.40;;;;;;;15.80;45.31;98119.11;1881714;91;20966;-78
2021/05/12 00:52:06;;;;;;;11.20;4.03;;;;;;;15.74;45.23;98125.37;1881641;91;21068;-78
2021/05/12 00:55:07;;;;;;;11.65;4.55;;;;;;;15.64;45.34;98126.45;1881662;91;21013;-78
2021/05/12 00:58:11;;;;;;;8.48;3.85;;;;;;;15.57;45.48;98129.61;1881744;91;20997;-78
2021/05/12 01:01:12;;;;;;;7.78;4.40;;;;;;;15.53;45.78;98125.28;1881582;91;21390;-77
2021/05/12 01:04:13;;;;;;;14.55;4.45;;;;;;;15.48;45.76;98124.95;1881607;91;20982;-78
2021/05/12 01:07:14;;;;;;;8.28;3.77;;;;;;;15.40;46.10;98122.91;1881735;91;21021;-78
2021/05/12 01:10:15;;;;;;;9.40;4.28;;;;;;;15.38;46.21;98121.62;1881482;91;20966;-78
2021/05/12 01:13:16;;;;;;;10.82;4.28;;;;;;;15.30;46.48;98119.14;1881566;91;21386;-77
2021/05/12 01:16:17;;;;;;;9.13;4.00;;;;;;;15.20;46.40;98118.89;1881573;91;21017;-78
2021/05/12 01:19:18;;;;;;;11.03;4.20;;;;;;;15.12;46.62;98118.61;1881902;91;21013;-78
2021/05/12 01:22:19;;;;;;;7.62;3.67;;;;;;;15.07;47.02;98121.77;1881690;91;21017;-77
2021/05/12 01:25:20;;;;;;;16.02;4.12;;;;;;;15.02;46.98;98119.66;1881552;91;20978;-78
2021/05/12 01:28:21;;;;;;;14.05;4.25;;;;;;;14.95;47.71;98114.96;1881704;91;21041;-78
2021/05/12 01:31:22;;;;;;;17.42;4.37;;;;;;;14.87;47.25;98116.41;1881491;91;21045;-77
2021/05/12 01:34:23;;;;;;;11.38;4.17;;;;;;;14.82;47.71;98112.98;1881638;91;21037;-77
2021/05/12 01:37:24;;;;;;;9.08;4.00;;;;;;;14.74;47.73;98109.63;1881585;91;21316;-77
2021/05/12 01:40:25;;;;;;;12.55;4.28;;;;;;;14.69;47.71;98111.87;1881631;91;20997;-79
2021/05/12 01:43:26;;;;;;;9.25;3.98;;;;;;;14.61;47.91;98104.98;1881548;91;21368;-78
2021/05/12 01:46:27;;;;;;;6.78;3.98;;;;;;;14.56;48.21;98104.19;1881254;91;21009;-79
2021/05/12 01:49:29;;;;;;;8.30;4.10;;;;;;;14.47;48.30;98110.02;1881445;91;21371;-77
2021/05/12 01:52:30;;;;;;;7.83;4.03;;;;;;;14.42;48.45;98110.09;1881438;91;21060;-77
2021/05/12 01:55:31;;;;;;;14.38;4.25;;;;;;;14.35;48.97;98104.48;1881364;91;20997;-77
2021/05/12 01:58:32;;;;;;;10.68;4.45;;;;;;;14.29;48.82;98097.56;1881709;91;21057;-78
2021/05/12 02:01:33;;;;;;;7.72;3.77;;;;;;;14.28;48.87;98101.53;1881456;91;21049;-77
2021/05/12 02:04:34;;;;;;;7.78;4.15;;;;;;;14.25;48.97;98098.50;1881612;91;21025;-77
2021/05/12 02:07:35;;;;;;;10.40;4.45;;;;;;;14.22;49.04;98096.37;1881620;91;20977;-77
2021/05/12 02:10:36;;;;;;;11.40;4.15;;;;;;;14.20;49.12;98096.83;1881593;91;21041;-78
2021/05/12 02:13:37;;;;;;;73.05;8.70;;;;;;;14.16;48.89;98090.77;1881683;91;21049;-79
2021/05/12 02:16:38;;;;;;;10.00;4.65;;;;;;;14.19;49.03;98098.59;1881644;91;21006;-78
2021/05/12 02:19:39;;;;;;;19.82;4.30;;;;;;;14.18;48.94;98095.98;1881715;91;21060;-78
2021/05/12 02:22:40;;;;;;;12.55;4.95;;;;;;;14.11;49.05;98095.21;1881693;91;21065;-76
2021/05/12 02:25:41;;;;;;;11.55;4.45;;;;;;;14.07;49.16;98091.34;1881804;91;21005;-78
2021/05/12 02:28:42;;;;;;;10.78;4.37;;;;;;;14.06;49.18;98092.23;1881800;91;21013;-78
2021/05/12 02:31:43;;;;;;;10.15;4.35;;;;;;;13.97;49.40;98085.35;1881678;91;21343;-78
2021/05/12 02:34:44;;;;;;;12.60;4.62;;;;;;;13.90;49.61;98089.81;1881773;91;20986;-78
2021/05/12 02:37:45;;;;;;;8.00;3.77;;;;;;;13.84;49.69;98085.06;1881922;91;21025;-79
2021/05/12 02:40:45;;;;;;;10.15;3.70;;;;;;;13.77;49.89;98082.96;1881760;91;21037;-78
2021/05/12 02:43:46;;;;;;;9.68;4.20;;;;;;;13.71;50.19;98075.17;1877477;91;21022;-78
2021/05/12 02:46:47;;;;;;;10.80;4.50;;;;;;;13.65;50.22;98069.56;1869185;91;21010;-78
2021/05/12 02:49:48;;;;;;;11.57;3.75;;;;;;;13.56;50.40;98072.75;1869213;91;21073;-77
2021/05/12 02:52:49;;;;;;;6.28;4.12;;;;;;;13.51;50.69;98070.63;1869362;91;21002;-78
2021/05/12 02:55:50;;;;;;;9.70;4.28;;;;;;;13.47;50.72;98070.23;1869317;91;21041;-78
2021/05/12 02:58:51;;;;;;;14.20;4.40;;;;;;;13.46;50.80;98080.30;1869230;91;21002;-78
2021/05/12 03:01:52;;;;;;;33.08;5.85;;;;;;;13.43;51.00;98081.64;1869223;91;21380;-77
2021/05/12 03:04:53;;;;;;;9.60;4.45;;;;;;;13.41;50.92;98072.93;1869144;91;20998;-78
2021/05/12 03:07:54;;;;;;;8.35;4.33;;;;;;;13.40;51.18;98062.89;1869458;91;21335;-79
2021/05/12 03:10:55;;;;;;;7.60;4.55;;;;;;;13.37;51.19;98069.03;1869395;91;20970;-78
2021/05/12 03:13:56;;;;;;;10.40;3.98;;;;;;;13.35;51.23;98068.62;1869294;91;21093;-80
2021/05/12 03:16:57;;;;;;;10.40;4.55;;;;;;;13.33;51.26;98067.77;1869377;91;21042;-77
2021/05/12 03:19:58;;;;;;;11.93;4.05;;;;;;;13.31;51.21;98068.23;1869325;91;21320;-77
2021/05/12 03:22:59;;;;;;;93.00;11.08;;;;;;;13.32;51.34;98066.91;1869119;91;20978;-77
2021/05/12 03:26:00;;;;;;;10.30;4.40;;;;;;;13.32;51.20;98067.35;1869515;91;21018;-78
2021/05/12 03:29:01;;;;;;;8.70;4.40;;;;;;;13.31;51.35;98067.80;1869324;91;20994;-78
2021/05/12 03:32:02;;;;;;;13.98;4.28;;;;;;;13.31;51.36;98062.99;1869266;91;21050;-78
2021/05/12 03:35:03;;;;;;;7.12;4.30;;;;;;;13.29;51.40;98068.25;1869362;91;21332;-78
2021/05/12 03:38:04;;;;;;;35.35;6.10;;;;;;;13.32;51.50;98065.59;1869715;91;21018;-80
2021/05/12 03:41:05;;;;;;;7.65;4.12;;;;;;;13.39;51.60;98069.02;1869675;91;21064;-78
2021/05/12 03:44:06;;;;;;;11.03;4.40;;;;;;;13.44;51.46;98062.41;1873504;91;21340;-78
2021/05/12 03:47:08;;;;;;;15.23;4.28;;;;;;;13.46;51.43;98075.05;1882204;91;21101;-79
2021/05/12 03:50:09;;;;;;;11.00;4.30;;;;;;;13.47;51.30;98072.86;1882017;91;21017;-78
2021/05/12 03:53:10;;;;;;;11.50;4.50;;;;;;;13.50;51.17;98068.44;1882291;91;21291;-79
2021/05/12 03:56:11;;;;;;;8.75;4.62;;;;;;;13.55;51.43;98070.56;1882187;91;21085;-78
2021/05/12 03:59:12;;;;;;;7.60;4.37;;;;;;;13.56;51.08;98068.37;1882057;91;21037;-79
2021/05/12 04:02:13;;;;;;;11.68;4.08;;;;;;;13.62;50.99;98062.18;1882042;91;21033;-77
2021/05/12 04:05:14;;;;;;;17.73;4.50;;;;;;;13.69;50.83;98058.14;1881805;91;21073;-80
2021/05/12 04:08:15;;;;;;;8.13;4.22;;;;;;;13.80;50.65;98064.56;1882037;91;21019;-78
2021/05/12 04:11:16;;;;;;;165.82;13.53;;;;;;;13.97;50.24;98065.23;1881924;91;21013;-79
2021/05/12 04:14:17;;;;;;;10.43;4.33;;;;;;;14.18;49.97;98065.80;1881755;91;21052;-78
2021/05/12 04:17:18;;;;;;;13.43;4.62;;;;;;;14.39;49.32;98058.91;1882063;91;21048;-79
2021/05/12 04:20:19;;;;;;;32.38;4.97;;;;;;;14.59;48.97;98055.55;1881956;91;21133;-80
2021/05/12 04:23:20;;;;;;;9.08;4.17;;;;;;;14.83;48.36;98056.92;1882190;91;21057;-80
2021/05/12 04:26:21;;;;;;;10.28;4.58;;;;;;;15.02;47.65;98054.83;1882098;91;21076;-80
2021/05/12 04:29:22;;;;;;;9.50;4.40;;;;;;;15.25;47.13;98052.63;1881435;91;21347;-81
2021/05/12 04:35:44;;;;;;;12.90;4.00;;;;;;;15.60;46.27;98047.14;1881632;91;21064;-79
2021/05/12 04:38:47;;;;;;;7.92;4.30;;;;;;;15.86;45.89;98053.20;1863001;91;21025;-80
2021/05/12 04:41:48;;;;;;;9.00;3.92;;;;;;;16.10;45.44;98051.78;1881600;91;21013;-79
2021/05/12 04:44:48;;;;;;;10.75;4.35;;;;;;;16.28;44.80;98047.41;1875367;91;21061;-79
2021/05/12 04:47:56;;;;;;;8.75;4.20;;;;;;;16.48;44.52;98047.83;1869228;91;21057;-81
2021/05/12 04:50:58;;;;;;;9.75;4.10;;;;;;;16.66;43.97;98045.67;1869766;91;20998;-80
2021/05/12 04:54:00;;;;;;;19.45;11.68;;;;;;;16.78;43.77;98038.32;1869747;91;21010;-81
2021/05/12 04:57:01;;;;;;;23.92;5.87;;;;;;;16.90;43.32;98043.72;1869580;91;21065;-81
2021/05/12 05:00:02;;;;;;;8.85;4.08;;;;;;;17.03;43.09;98045.13;1869200;91;21021;-82
2021/05/12 05:03:06;;;;;;;11.78;4.70;;;;;;;17.26;43.04;98036.59;1869598;91;21029;-80
2021/05/12 05:06:06;;;;;;;10.68;4.42;;;;;;;17.53;42.61;98038.94;1869431;91;21057;-80
2021/05/12 05:09:07;;;;;;;11.28;4.53;;;;;;;17.68;41.86;98033.25;1869115;91;21049;-81
2021/05/12 05:12:08;;;;;;;6.83;4.20;;;;;;;17.79;41.68;98029.83;1868766;91;21010;-80
2021/05/12 05:15:09;;;;;;;7.20;3.87;;;;;;;17.83;41.36;98031.47;1869193;91;21045;-82
2021/05/12 05:18:10;;;;;;;10.78;4.10;;;;;;;17.87;41.02;98032.24;1868885;91;21059;-81
2021/05/12 05:21:11;;;;;;;100.22;11.05;;;;;;;17.78;40.75;98033.38;1869177;91;21077;-81
2021/05/12 05:24:12;;;;;;;7.75;3.37;;;;;;;17.83;41.11;98037.20;1869828;91;21046;-81
2021/05/12 05:27:13;;;;;;;10.35;5.70;;;;;;;17.95;40.72;98039.48;1869750;91;21029;-81
2021/05/12 05:30:14;;;;;;;9.03;5.87;;;;;;;18.01;40.68;98039.28;1869739;91;21055;-80
2021/05/12 05:33:15;;;;;;;67.90;8.20;;;;;;;18.13;40.51;98036.27;1869639;91;21053;-79
2021/05/12 05:36:16;;;;;;;11.30;4.37;;;;;;;18.28;40.20;98038.91;1869661;91;21050;-81
2021/05/12 05:39:17;;;;;;;13.13;4.90;;;;;;;18.30;39.78;98034.45;1869899;91;21010;-80
2021/05/12 05:42:18;;;;;;;5.85;3.80;;;;;;;18.47;40.44;98037.86;1869503;91;21384;-78
2021/05/12 05:45:19;;;;;;;9.05;4.35;;;;;;;18.62;39.48;98028.14;1869897;91;21049;-80
2021/05/12 05:48:20;;;;;;;9.65;4.30;;;;;;;18.68;40.04;98029.72;1869681;91;21091;-80
2021/05/12 05:51:22;;;;;;;10.35;3.85;;;;;;;18.75;39.69;98030.78;1869568;91;21022;-81
2021/05/12 05:54:24;;;;;;;8.90;6.35;;;;;;;18.93;39.74;98022.67;1869504;91;21001;-79
2021/05/12 05:57:26;;;;;;;61.88;20.37;;;;;;;19.20;39.74;98026.63;1869367;91;21077;-80
2021/05/12 06:00:27;;;;;;;20.17;5.30;;;;;;;19.45;39.30;98026.59;1869803;91;21416;-80
2021/05/12 06:03:28;;;;;;;10.58;4.22;;;;;;;19.68;38.83;98027.50;1869357;91;21082;-80
2021/05/12 06:06:29;;;;;;;7.35;3.60;;;;;;;19.77;38.91;98028.94;1869186;91;21057;-81
2021/05/12 06:09:30;;;;;;;8.08;3.90;;;;;;;19.80;38.40;98031.94;1869743;91;21053;-81
2021/05/12 06:12:31;;;;;;;6.95;3.67;;;;;;;19.85;38.76;98028.65;1870016;91;21069;-81
2021/05/12 06:15:32;;;;;;;18.80;4.45;;;;;;;20.02;38.49;98027.56;1869857;91;21058;-80
2021/05/12 06:18:33;;;;;;;6.85;4.00;;;;;;;20.24;38.84;98026.26;1869684;91;21339;-80
2021/05/12 06:21:34;;;;;;;5.78;3.52;;;;;;;20.51;38.19;98030.94;1869955;91;21064;-80
2021/05/12 06:24:35;;;;;;;11.88;4.65;;;;;;;20.71;37.82;98025.67;1870150;91;20975;-83
2021/05/12 06:27:36;;;;;;;10.65;4.35;;;;;;;20.98;37.61;98027.66;1870112;91;21018;-82
2021/05/12 06:30:37;;;;;;;17.30;5.92;;;;;;;21.22;37.42;98024.40;1870242;91;21074;-80
2021/05/12 06:33:41;;;;;;;9.00;3.70;;;;;;;21.43;37.25;98026.13;1870452;91;21098;-79
2021/05/12 06:36:42;;;;;;;8.13;4.08;;;;;;;21.56;36.78;98027.30;1869887;91;20974;-80
2021/05/12 06:39:43;;;;;;;7.42;3.62;;;;;;;21.82;37.04;98021.30;1869780;91;21069;-81
2021/05/12 06:42:44;;;;;;;7.72;3.95;;;;;;;22.09;36.48;98026.67;1869874;91;21085;-81
2021/05/12 06:45:45;;;;;;;6.83;4.65;;;;;;;22.23;36.23;98024.22;1877618;91;21096;-80
2021/05/12 06:48:46;;;;;;;8.95;4.25;;;;;;;22.34;35.81;98023.70;1882131;91;21021;-80
2021/05/12 06:51:47;;;;;;;9.18;3.72;;;;;;;22.54;35.99;98016.08;1882292;91;21025;-80
2021/05/12 06:54:48;;;;;;;6.90;3.65;;;;;;;22.74;35.67;98019.11;1882146;91;21040;-80
2021/05/12 06:57:49;;;;;;;11.90;4.08;;;;;;;22.85;35.38;98015.00;1882135;91;21021;-80
2021/05/12 07:00:51;;;;;;;6.85;3.70;;;;;;;23.05;35.20;98013.98;1882075;91;21419;-81
2021/05/12 07:03:52;;;;;;;7.22;3.83;;;;;;;23.30;35.37;98017.55;1882265;91;21064;-80
2021/05/12 07:06:53;;;;;;;10.40;4.40;;;;;;;23.48;34.91;98014.42;1882265;91;20993;-80
2021/05/12 07:09:54;;;;;;;10.75;3.80;;;;;;;23.43;34.47;98017.33;1881864;91;20985;-80
2021/05/12 07:12:55;;;;;;;6.25;3.92;;;;;;;23.45;34.64;98018.11;1882292;91;21324;-80
2021/05/12 07:15:56;;;;;;;8.35;3.95;;;;;;;23.48;34.52;98014.42;1882086;91;21041;-81
2021/05/12 07:18:57;;;;;;;8.35;4.08;;;;;;;23.51;34.51;98017.78;1882038;91;21092;-81
2021/05/12 07:21:58;;;;;;;8.05;4.35;;;;;;;23.57;34.03;98013.10;1881981;91;21068;-81
2021/05/12 07:25:00;;;;;;;13.22;3.87;;;;;;;23.69;33.89;98004.45;1881804;91;21005;-80
2021/05/12 07:28:01;;;;;;;7.83;4.25;;;;;;;23.95;33.47;98004.34;1882108;91;21418;-80
2021/05/12 07:31:02;;;;;;;14.73;5.30;;;;;;;23.91;33.32;97998.33;1882419;91;21084;-80
2021/05/12 07:34:06;;;;;;;41.35;29.15;;;;;;;24.07;33.77;97996.53;1882151;91;21061;-80
2021/05/12 07:37:07;;;;;;;7.62;4.33;;;;;;;24.38;33.25;97988.19;1882325;91;21065;-81
2021/05/12 07:40:08;;;;;;;14.05;4.35;;;;;;;24.57;32.79;97988.84;1882030;91;21013;-80
2021/05/12 07:43:11;;;;;;;9.70;3.55;;;;;;;24.65;32.74;97988.39;1882045;91;21011;-80
2021/05/12 07:46:12;;;;;;;5.33;3.30;;;;;;;24.83;32.22;97983.31;1873131;91;21069;-80
2021/05/12 07:49:13;;;;;;;8.13;3.60;;;;;;;25.01;32.33;97982.23;1869060;91;21336;-80
2021/05/12 07:52:15;;;;;;;7.53;3.33;;;;;;;25.22;32.56;97979.25;1869088;91;21069;-80
2021/05/12 07:55:16;;;;;;;7.58;3.60;;;;;;;25.39;32.54;97983.95;1869043;91;21093;-80
2021/05/12 07:58:17;;;;;;;8.43;3.40;;;;;;;25.60;31.98;97982.23;1869349;91;21049;-80
2021/05/12 08:01:21;;;;;;;9.18;4.40;;;;;;;25.72;31.47;97976.15;1869228;91;21022;-79
2021/05/12 08:04:21;;;;;;;;;;;;;;;25.79;31.66;97970.80;1871229;91;21074;-80
2021/05/12 08:07:23;;;;;;;9.03;4.33;;;;;;;25.90;31.60;97969.62;1869348;91;20146;-81
2021/05/12 08:10:24;;;;;;;5.03;3.35;;;;;;;26.01;31.47;97969.83;1869509;91;21067;-79
2021/05/12 08:13:25;;;;;;;11.90;3.67;;;;;;;26.16;31.46;97969.31;1869263;91;21047;-80
2021/05/12 08:16:26;;;;;;;8.58;3.83;;;;;;;26.27;31.49;97965.94;1869680;91;21332;-79
2021/05/12 08:19:27;;;;;;;8.55;6.78;;;;;;;26.28;31.39;97966.32;1869461;91;21049;-81
2021/05/12 08:22:28;;;;;;;9.35;3.75;;;;;;;26.37;31.39;97964.41;1869840;91;21394;-81
2021/05/12 08:25:29;;;;;;;3.27;2.98;;;;;;;26.40;31.36;97966.02;1869801;91;21112;-81
2021/05/12 08:28:30;;;;;;;38.80;5.55;;;;;;;26.54;30.95;97954.78;1869622;91;21050;-80
2021/05/12 08:31:31;;;;;;;8.55;2.98;;;;;;;26.63;31.07;97948.81;1869340;91;21030;-82
2021/05/12 08:34:32;;;;;;;31.17;4.85;;;;;;;26.84;30.53;97946.98;1869205;91;21034;-82
2021/05/12 08:37:33;;;;;;;29.15;4.90;;;;;;;26.93;30.28;97943.70;1869118;91;21097;-81
2021/05/12 08:40:34;;;;;;;9.50;3.25;;;;;;;27.05;30.58;97941.55;1868760;91;21066;-79
2021/05/12 08:43:35;;;;;;;25.27;5.53;;;;;;;27.27;29.96;97944.94;1868837;91;20990;-80
2021/05/12 08:46:36;;;;;;;10.63;3.50;;;;;;;27.45;29.92;97942.78;1869549;91;21133;-80
2021/05/12 08:49:37;;;;;;;6.92;4.80;;;;;;;27.41;29.31;97941.28;1869983;91;21006;-80
2021/05/12 08:52:38;;;;;;;8.50;3.60;;;;;;;27.51;29.30;97940.52;1869391;91;21026;-80
2021/05/12 08:55:39;;;;;;;8.10;2.98;;;;;;;27.55;29.78;97931.30;1869724;91;21018;-81
2021/05/12 08:58:40;;;;;;;14.15;3.60;;;;;;;27.71;29.63;97927.06;1869741;91;21009;-81
2021/05/12 09:01:41;;;;;;;5.72;2.80;;;;;;;27.94;29.14;97933.95;1869881;91;21464;-81
2021/05/12 09:04:42;;;;;;;8.13;2.98;;;;;;;28.10;28.84;97926.02;1869976;91;21362;-81
2021/05/12 09:07:43;;;;;;;7.17;3.05;;;;;;;28.09;28.78;97928.81;1869659;91;21371;-81
2021/05/12 09:10:44;;;;;;;359.15;35.38;;;;;;;28.20;28.45;97927.53;1869495;91;21359;-81
2021/05/12 09:13:47;;;;;;;6.60;3.17;;;;;;;28.24;28.29;97923.68;1869718;91;21057;-82
2021/05/12 09:16:48;;;;;;;6.90;3.08;;;;;;;28.06;28.54;97912.94;1869696;91;21014;-80
2021/05/12 09:19:50;;;;;;;7.08;3.45;;;;;;;28.19;28.74;97911.06;1870377;91;21081;-81
2021/05/12 09:22:51;;;;;;;12.07;3.40;;;;;;;28.37;29.29;97912.89;1869587;91;20998;-82
2021/05/12 09:25:51;;;;;;;12.37;3.22;;;;;;;28.45;28.49;97907.80;1869600;91;21296;-81
2021/05/12 09:28:53;;;;;;;13.35;12.10;;;;;;;28.66;28.67;97895.45;1869231;91;21312;-80
2021/05/12 09:31:54;;;;;;;8.43;4.25;;;;;;;28.85;29.34;97897.62;1869469;91;21010;-81
2021/05/12 09:34:56;;;;;;;19.60;4.20;;;;;;;28.92;28.20;97897.52;1869764;92;21056;-81
2021/05/12 09:38:00;;;;;;;7.33;3.12;;;;;;;29.00;28.49;97896.42;1869354;91;20994;-82
2021/05/12 09:41:01;;;;;;;4.25;2.58;;;;;;;29.12;27.99;97898.16;1869502;91;21026;-81
2021/05/12 09:44:04;;;;;;;7.22;3.40;;;;;;;28.99;27.45;97895.20;1869485;91;21403;-84
2021/05/12 09:47:07;;;;;;;10.28;3.52;;;;;;;29.03;27.68;97887.27;1869320;91;21087;-79
2021/05/12 09:50:08;;;;;;;7.55;3.12;;;;;;;29.17;27.47;97887.90;1869066;91;20997;-82
2021/05/12 09:53:11;;;;;;;10.25;3.58;;;;;;;29.33;28.32;97878.62;1869477;91;21022;-81
2021/05/12 09:56:12;;;;;;;;;;;;;;;29.29;26.66;97879.84;1871589;91;21014;-83
2021/05/12 09:59:14;;;;;;;3.33;3.00;;;;;;;29.09;27.46;97884.10;1869523;91;20149;-83
2021/05/12 10:02:15;;;;;;;27.30;4.65;;;;;;;29.04;27.15;97880.44;1869374;91;21038;-78
2021/05/12 10:05:17;;;;;;;5.03;2.80;;;;;;;29.00;26.87;97885.68;1869292;91;21049;-82
2021/05/12 10:08:18;;;;;;;3.37;2.42;;;;;;;29.00;27.45;97875.42;1869718;91;21322;-81
2021/05/12 10:11:20;;;;;;;4.85;2.35;;;;;;;29.13;27.01;97879.71;1869899;91;21045;-80
2021/05/12 10:14:21;;;;;;;7.08;2.75;;;;;;;29.22;27.31;97884.84;1869665;91;21292;-80
2021/05/12 10:17:22;;;;;;;5.42;2.58;;;;;;;29.20;27.16;97875.20;1869625;91;21006;-83
2021/05/12 10:20:24;;;;;;;6.65;2.58;;;;;;;29.42;26.42;97855.03;1869827;91;21018;-80
2021/05/12 10:23:25;;;;;;;8.05;2.85;;;;;;;29.53;26.63;97866.34;1869456;91;21050;-80
2021/05/12 10:26:26;;;;;;;4.80;2.52;;;;;;;29.55;26.38;97865.72;1869419;91;21050;-81
2021/05/12 10:29:27;;;;;;;2.95;2.40;;;;;;;29.43;26.61;97864.36;1869857;91;20971;-81
2021/05/12 10:32:30;;;;;;;7.28;2.58;;;;;;;29.44;27.05;97859.83;1869625;91;21002;-80
2021/05/12 10:35:31;;;;;;;5.45;2.70;;;;;;;29.34;26.13;97842.70;1869714;91;20998;-80
2021/05/12 10:38:34;;;;;;;10.13;2.65;;;;;;;29.10;26.87;97849.05;1855418;91;21061;-80
2021/05/12 10:41:35;;;;;;;5.87;2.65;;;;;;;29.24;27.22;97857.85;1869659;91;21010;-80
2021/05/12 10:44:36;;;;;;;6.08;2.80;;;;;;;29.25;26.55;97859.56;1869186;91;21018;-80
2021/05/12 10:47:37;;;;;;;12.37;10.82;;;;;;;29.29;26.66;97863.23;1880006;91;21092;-80
2021/05/12 10:50:38;;;;;;;9.80;3.30;;;;;;;29.34;26.62;97857.48;1882072;91;21135;-80
2021/05/12 10:53:39;;;;;;;3.42;2.72;;;;;;;29.45;26.73;97858.36;1882193;91;21016;-80
2021/05/12 10:56:41;;;;;;;21.27;3.67;;;;;;;29.35;25.49;97850.64;1881980;91;21029;-82
2021/05/12 10:59:43;;;;;;;7.55;2.55;;;;;;;29.31;26.54;97848.32;1882183;91;21061;-80
2021/05/12 11:02:44;;;;;;;63.08;6.70;;;;;;;29.46;26.05;97848.47;1882174;91;21101;-83
2021/05/12 11:05:45;;;;;;;2.30;2.05;;;;;;;29.46;25.82;97851.16;1882714;91;21076;-80
2021/05/12 11:08:46;;;;;;;4.70;2.50;;;;;;;29.28;25.10;97830.61;1882223;91;21064;-82
2021/05/12 11:11:47;;;;;;;173.05;16.20;;;;;;;28.98;25.88;97851.36;1882033;91;21025;-82
2021/05/12 11:14:48;;;;;;;8.33;2.37;;;;;;;29.02;26.49;97839.41;1881865;91;21061;-82
2021/05/12 11:17:49;;;;;;;6.90;2.40;;;;;;;29.23;26.25;97850.77;1882192;91;21104;-81
2021/05/12 11:20:50;;;;;;;8.45;2.35;;;;;;;29.30;25.96;97848.81;1882046;91;21021;-79
2021/05/12 11:23:51;;;;;;;2.60;2.12;;;;;;;29.34;26.17;97846.25;1881491;91;21331;-82
2021/05/12 11:27:01;;;;;;;3.37;2.52;;;;;;;29.31;25.33;97835.73;1882058;91;20989;-81
2021/05/12 11:33:16;;;;;;;3.75;2.80;;;;;;;29.53;25.46;97826.86;1882323;91;21046;-80
2021/05/12 11:36:19;;;;;;;25.15;4.50;;;;;;;29.59;25.73;97829.05;1881938;91;21347;-82
2021/05/12 11:39:20;;;;;;;6.37;2.47;;;;;;;29.55;26.07;97819.52;1882109;91;21081;-81
2021/05/12 11:42:21;;;;;;;10.20;2.90;;;;;;;29.51;26.07;97823.44;1882265;91;21099;-81
2021/05/12 11:45:22;;;;;;;3.45;2.50;;;;;;;29.29;25.94;97819.38;1881441;91;21009;-80
2021/05/12 11:48:23;;;;;;;9.55;3.22;;;;;;;29.40;26.20;97815.33;1870137;91;21010;-81
2021/05/12 11:51:24;;;;;;;13.68;11.43;;;;;;;29.60;25.99;97814.63;1870080;91;21018;-83
2021/05/12 11:54:25;;;;;;;10.20;7.12;;;;;;;29.59;25.38;97803.50;1870099;91;21420;-81
2021/05/12 11:57:26;;;;;;;8.88;3.75;;;;;;;29.65;25.88;97798.97;1869805;91;21002;-81
2021/05/12 12:00:27;;;;;;;4.10;2.35;;;;;;;29.67;25.42;97806.91;1870142;91;21010;-82
2021/05/12 12:03:28;;;;;;;4.30;2.22;;;;;;;29.51;24.67;97796.55;1870151;91;21053;-82
2021/05/12 12:06:29;;;;;;;7.90;2.50;;;;;;;29.50;25.72;97802.91;1870003;91;21041;-81
2021/05/12 12:09:30;;;;;;;9.13;3.92;;;;;;;29.48;25.77;97800.84;1869908;91;21241;-81
2021/05/12 12:12:33;;;;;;;4.90;2.52;;;;;;;29.50;26.12;97789.96;1870247;91;21010;-82
2021/05/12 12:15:34;;;;;;;9.95;3.22;;;;;;;29.68;25.34;97787.96;1869931;91;21018;-80
2021/05/12 12:18:35;;;;;;;15.60;3.22;;;;;;;29.80;24.95;97778.88;1869635;91;21006;-81
2021/05/12 12:21:36;;;;;;;6.37;2.42;;;;;;;30.02;25.51;97790.56;1869887;91;21030;-81
2021/05/12 12:24:37;;;;;;;6.35;2.98;;;;;;;29.85;25.39;97797.32;1869706;91;21065;-81
2021/05/12 12:27:38;;;;;;;8.75;3.12;;;;;;;29.96;25.33;97785.17;1870009;91;20954;-79
2021/05/12 12:30:39;;;;;;;29.30;4.20;;;;;;;29.99;25.10;97782.23;1869764;91;21344;-79
2021/05/12 12:33:40;;;;;;;7.95;3.12;;;;;;;29.71;25.33;97797.13;1869702;91;21055;-80
2021/05/12 12:36:41;;;;;;;6.78;2.75;;;;;;;29.91;25.70;97798.16;1869822;91;21037;-79
2021/05/12 12:39:44;;;;;;;14.23;6.42;;;;;;;30.00;24.67;97796.05;1869924;91;21336;-79
2021/05/12 12:42:45;;;;;;;6.92;2.90;;;;;;;29.86;25.53;97784.73;1869623;91;21335;-81
2021/05/12 12:45:46;;;;;;;4.92;2.30;;;;;;;29.90;24.82;97783.48;1869616;91;21315;-79
2021/05/12 12:48:47;;;;;;;5.58;2.42;;;;;;;30.01;25.01;97795.09;1869716;91;21026;-80
2021/05/12 12:51:48;;;;;;;60.90;5.28;;;;;;;29.94;24.67;97799.73;1869767;91;21269;-79
2021/05/12 12:54:51;;;;;;;7.65;2.83;;;;;;;29.91;24.68;97790.58;1869665;91;20978;-79
2021/05/12 12:57:52;;;;;;;;;;;;;;;30.01;25.01;97779.41;1871908;91;21055;-79
2021/05/12 13:00:53;;;;;;;2.50;2.30;;;;;;;29.89;25.22;97776.41;1870128;91;20208;-80
2021/05/12 13:03:54;;;;;;;7.50;2.60;;;;;;;29.92;25.14;97782.37;1869660;91;21394;-79
2021/05/12 13:06:55;;;;;;;6.03;2.40;;;;;;;29.79;24.54;97782.55;1869387;91;21093;-79
2021/05/12 13:09:56;;;;;;;19.07;5.50;;;;;;;29.74;23.74;97782.08;1869619;91;21010;-79
2021/05/12 13:12:57;;;;;;;4.67;2.60;;;;;;;29.73;24.59;97773.64;1869677;91;21065;-80
2021/05/12 13:15:58;;;;;;;7.67;2.35;;;;;;;29.95;24.88;97776.73;1869712;91;21069;-79
2021/05/12 13:19:00;;;;;;;6.20;2.55;;;;;;;30.00;23.65;97773.17;1869570;91;21355;-80
2021/05/12 13:22:03;;;;;;;5.97;3.27;;;;;;;29.97;23.75;97769.89;1869173;91;20990;-79
2021/05/12 13:25:04;;;;;;;4.35;2.50;;;;;;;30.01;24.27;97769.53;1869106;92;21093;-79
2021/05/12 13:28:05;;;;;;;3.52;2.00;;;;;;;30.01;23.63;97770.88;1869409;91;21045;-80
2021/05/12 13:31:06;;;;;;;4.70;2.30;;;;;;;30.07;24.00;97777.09;1869724;91;20970;-80
2021/05/12 13:34:08;;;;;;;7.97;2.27;;;;;;;29.99;23.60;97771.47;1869812;91;21066;-81
2021/05/12 13:37:09;;;;;;;30.35;23.98;;;;;;;29.96;23.15;97760.11;1869376;91;21304;-79
2021/05/12 13:40:10;;;;;;;5.17;3.55;;;;;;;30.11;23.18;97765.57;1869827;91;20998;-79
2021/05/12 13:43:11;;;;;;;11.35;5.33;;;;;;;30.07;22.78;97763.63;1869436;91;21073;-79
2021/05/12 13:46:12;;;;;;;3.00;1.90;;;;;;;29.89;23.04;97760.26;1870911;91;21045;-83
2021/05/12 13:49:13;;;;;;;2.85;2.08;;;;;;;29.72;23.43;97760.33;1882104;91;21029;-81
2021/05/12 13:52:21;;;;;;;2.05;1.72;;;;;;;29.79;22.94;97747.58;1882130;91;21045;-80
2021/05/12 13:55:22;;;;;;;10.60;2.75;;;;;;;29.87;23.53;97745.59;1881306;91;20978;-81
2021/05/12 14:01:54;;;;;;;7.20;2.00;;;;;;;29.91;23.34;97743.50;1882262;91;20177;-83
2021/05/12 14:04:56;;;;;;;3.95;1.90;;;;;;;29.89;23.38;97738.73;1881734;91;21045;-81
2021/05/12 14:07:57;;;;;;;4.28;1.80;;;;;;;29.89;23.39;97737.39;1882065;91;20997;-81
2021/05/12 14:10:59;;;;;;;9.00;2.95;;;;;;;29.90;22.31;97736.41;1882574;91;21009;-82
2021/05/12 14:14:05;;;;;;;11.30;6.50;;;;;;;29.71;23.01;97734.41;1882285;91;21009;-81
2021/05/12 14:17:09;;;;;;;6.60;2.27;;;;;;;29.78;23.05;97724.36;1882203;91;21052;-81
2021/05/12 14:20:09;;;;;;;3.08;2.00;;;;;;;29.76;22.73;97720.94;1882773;91;21056;-81